• Join FlightAware (Why Join?)
  • Login
  • US Flag 
02:21AM EDT


 

Airport Tracker/Info


-or-


 

Live Flight TrackerFlight Track Log ✈ SWA1169 ✈ 07-May-2013 ✈ KBWI - KMHT

Flight Track Log - Related Links

Times and Time Zones

All times are in EDT time to prevent confusion due to time zone crossing. See the SWA1169 flight status page for this flight to view local times or setup timezone preferences in your user account.

Time Position Orientation Groundspeed Altitude Reporting Facility
EDT Latitude Longitude Course Direction KTS MPH feet Rate Location/Type
12:14PM 39.1167 -76.6333 270° West 181 208 3,400  Level Potomac TRACON
12:16PM 39.1036 -76.5358 100° East 244 281 6,600 2,760 Climbing Washington Center
12:17PM 39.1167 -76.4450 79° East 255 293 10,500 3,120 Climbing Washington Center
12:18PM 39.1319 -76.3356 80° East 279 321 13,000 2,880 Climbing Washington Center
12:19PM 39.1494 -76.2178 79° East 311 358 16,200 3,120 Climbing Washington Center
12:20PM 39.1667 -76.6363 270° West  Level FlightAware Approximate
12:20PM 39.1686 -76.0789 80° East 340 391 19,200  Level Washington Center
12:21PM 39.1858 -75.9478 80° East 360 414 21,700 2,280 Climbing Washington Center
12:22PM 39.2361 -75.8247 62° Northeast 376 433 23,900 2,400 Climbing Washington Center
12:23PM 39.3197 -75.7178 45° Northeast 388 447 26,500 2,280 Climbing Washington Center
12:24PM 39.4031 -75.6103 45° Northeast 399 459 28,500 1,800 Climbing Washington Center
12:25PM 39.4864 -75.5028 45° Northeast 411 473 30,200 1,620 Climbing Washington Center
12:26PM 39.5739 -75.3869 46° Northeast 424 488 31,900 1,620 Climbing Washington Center
12:27PM 39.6611 -75.2708 46° Northeast 430 495 33,500 1,500 Climbing Washington Center
12:28PM 39.7381 -75.1578 48° Northeast 464 534 34,800 1,320 Climbing New York Center
12:29PM 39.8239 -75.0361 47° Northeast 470 541 36,100 1,080 Climbing New York Center
12:30PM 39.9136 -74.9117 47° Northeast 470 541 37,000 420 Climbing New York Center
12:31PM 39.9903 -74.8078 46° Northeast 465 535 37,000 -180 Level New York Center
12:32PM 40.0736 -74.6878 48° Northeast 449 517 36,700 -3,000 Descending New York Center
12:33PM 40.1656 -74.5492 49° Northeast 449 517 31,000 -1,080 Descending New York Center
12:34PM 40.2783 -74.4764 26° Northeast 449 517 34,600 1,260 Climbing New York Center
12:35PM 40.4067 -74.4425 11° North 452 520 33,600 -1,020 Descending New York Center
12:36PM 40.5325 -74.4108 11° North 452 520 32,600 -1,020 Descending New York Center
12:37PM 40.6544 -74.3764 12° North 447 514 31,600 -600 Descending New York Center
12:39PM 40.8569 -74.3308 10° North 438 504 31,000 -240 Descending Boston Center
12:40PM 40.9761 -74.2986 12° North 433 498 31,000  Level Boston Center
12:41PM 41.0978 -74.2636 12° North 433 498 31,000  Level Boston Center
12:42PM 41.2169 -74.2311 12° North 433 498 31,000  Level Boston Center
12:43PM 41.3489 -74.1933 12° North 433 498 31,000  Level Boston Center
12:44PM 41.4683 -74.1606 12° North 427 491 31,000  Level Boston Center
12:45PM 41.5728 -74.1328 11° North 433 498 31,000  Level Boston Center
12:46PM 41.6942 -74.0997 11° North 433 498 31,000 -540 Level Boston Center
12:47PM 41.7875 -73.9936 40° Northeast 422 486 30,000 -1,080 Descending Boston Center
12:48PM 41.8683 -73.8564 52° Northeast 410 472 28,900 -1,020 Descending Boston Center
12:49PM 41.9469 -73.7297 50° Northeast 424 488 28,000 -960 Descending Boston Center
12:50PM 42.0233 -73.6028 51° Northeast 436 502 27,000 -540 Descending Boston Center
12:51PM 42.0956 -73.4808 51° Northeast 443 510 27,000 -300 Level Boston Center
12:52PM 42.1758 -73.3478 51° Northeast 443 510 26,500 -780 Descending Boston Center
12:53PM 42.2519 -73.2197 51° Northeast 428 493 25,500 -1,020 Descending Boston Center
12:54PM 42.3297 -73.0889 51° Northeast 433 498 24,500 -960 Descending Boston Center
12:55PM 42.4056 -72.9547 53° Northeast 446 513 23,600 -960 Descending Boston Center
12:56PM 42.4811 -72.8286 51° Northeast 440 506 22,600 -1,080 Descending Boston Center
12:57PM 42.5544 -72.6967 53° Northeast 430 495 21,500 -840 Descending Boston Center
12:58PM 42.6253 -72.5981 46° Northeast 414 476 21,000 -300 Descending Boston Center
12:59PM 42.6881 -72.4908 51° Northeast 394 453 21,000 -1,440 Level Boston Center
01:00PM 42.7464 -72.3778 55° Northeast 375 432 18,200 -3,300 Descending Boston Center
01:01PM 42.7961 -72.2364 64° Northeast 370 426 14,500 -3,300 Descending Boston Center
01:02PM 42.8106 -72.0975 82° East 363 418 11,600 -2,220 Descending Boston Center
01:03PM 42.8433 -71.9758 70° East 349 402 10,100 -1,440 Descending Boston Center
01:04PM 42.8783 -71.8733 65° Northeast 310 357 8,800 -2,040 Descending Boston Center
01:05PM 42.9111 -71.7853 63° Northeast 273 314 6,100 -2,400 Descending Boston Center
01:06PM 42.9439 -71.6969 63° Northeast 259 298 4,000 -1,200 Descending Boston Center
01:07PM 42.9686 -71.6314 63° Northeast 210 242 3,700 -660 Descending Boston Center
01:08PM 42.9911 -71.5717 63° Northeast 186 214 2,700 -900 Descending Boston Center
01:09PM 43.0094 -71.5144 66° East 159 183 1,900 -600 Descending Boston Center
01:10PM 42.9964 -71.4692 112° Southeast 134 154 1,500 -660 Descending Boston Center
01:11PM 42.9608 -71.4528 161° South 128 147 600 -600 Descending Boston Center
01:12PM 42.9272 -71.4278 151° Southeast 133 153 300 4,200 Descending Boston Center
01:13PM 42.9022 -71.4111 154° Southeast 133 153 9,000 4,320 Climbing Boston Center
01:14PM 42.8644 -71.3864 154° Southeast 133 153 9,000  Level Boston Center
01:15PM 42.8331 -71.3669 156° South 133 153 9,000  Level Boston Center
01:17PM 42.9167 -71.4333 316° Northwest  Level FlightAware Approximate
01:24PM 42.9328 -71.4358 316° Northwest  Level Estimated
01:25PM 42.9328 -71.4358 316° Northwest  Level Estimated
01:26PM 42.9328 -71.4358 316° Northwest  Level Estimated
01:27PM 42.9328 -71.4358 316° Northwest  Level Estimated
01:28PM 42.9328 -71.4358 316° Northwest  Level Estimated
01:29PM 42.9328 -71.4358 316° Northwest  Level Estimated